sensor_id;sensor_type;location;lat;lon;timestamp;pressure;altitude;pressure_sealevel;temperature;humidity
60258;BME280;46115;44.484;11.314;2023-05-08T00:03:33;100354.94;;;20.27;55.14
60258;BME280;46115;44.484;11.314;2023-05-08T00:07:36;100367.44;;;19.78;58.54
60258;BME280;46115;44.484;11.314;2023-05-08T00:11:38;100388.44;;;20.13;60.18
60258;BME280;46115;44.484;11.314;2023-05-08T00:15:42;100375.97;;;19.41;66.42
60258;BME280;46115;44.484;11.314;2023-05-08T00:19:44;100378.94;;;19.38;69.26
60258;BME280;46115;44.484;11.314;2023-05-08T00:23:47;100400.06;;;19.31;71.54
60258;BME280;46115;44.484;11.314;2023-05-08T00:27:49;100399.69;;;19.67;71.51
60258;BME280;46115;44.484;11.314;2023-05-08T00:31:53;100398.56;;;18.97;76.26
60258;BME280;46115;44.484;11.314;2023-05-08T00:35:59;100405.38;;;19.22;76.77
60258;BME280;46115;44.484;11.314;2023-05-08T00:40:02;100391.56;;;19.26;76.73
60258;BME280;46115;44.484;11.314;2023-05-08T00:44:04;100398.56;;;19.18;77.97
60258;BME280;46115;44.484;11.314;2023-05-08T00:48:08;100388.97;;;18.94;78.54
60258;BME280;46115;44.484;11.314;2023-05-08T00:52:10;100394.38;;;18.51;82.05
60258;BME280;46115;44.484;11.314;2023-05-08T00:56:14;100393.94;;;18.99;79.79
60258;BME280;46115;44.484;11.314;2023-05-08T01:00:19;100388.94;;;18.42;83.26
60258;BME280;46115;44.484;11.314;2023-05-08T01:04:24;100379.31;;;18.82;80.60
60258;BME280;46115;44.484;11.314;2023-05-08T01:08:27;100381.31;;;18.69;80.73
60258;BME280;46115;44.484;11.314;2023-05-08T01:12:43;100383.44;;;18.11;83.96
60258;BME280;46115;44.484;11.314;2023-05-08T01:16:53;100377.84;;;18.03;85.72
60258;BME280;46115;44.484;11.314;2023-05-08T01:21:03;100376.91;;;17.93;86.14
60258;BME280;46115;44.484;11.314;2023-05-08T01:25:45;100390.97;;;18.17;85.54
60258;BME280;46115;44.484;11.314;2023-05-08T01:34:31;100392.94;;;17.59;90.31
60258;BME280;46115;44.484;11.314;2023-05-08T01:38:39;100398.56;;;18.33;85.10
60258;BME280;46115;44.484;11.314;2023-05-08T01:42:47;100405.06;;;18.19;85.82
60258;BME280;46115;44.484;11.314;2023-05-08T01:46:50;100417.13;;;18.14;86.18
60258;BME280;46115;44.484;11.314;2023-05-08T01:51:00;100379.44;;;18.05;85.35
60258;BME280;46115;44.484;11.314;2023-05-08T01:55:08;100416.34;;;18.23;86.24
60258;BME280;46115;44.484;11.314;2023-05-08T01:59:13;100422.97;;;18.07;86.39
60258;BME280;46115;44.484;11.314;2023-05-08T02:03:19;100418.81;;;18.15;86.74
60258;BME280;46115;44.484;11.314;2023-05-08T02:07:24;100426.63;;;18.38;84.57
60258;BME280;46115;44.484;11.314;2023-05-08T02:11:29;100431.13;;;18.06;87.15
60258;BME280;46115;44.484;11.314;2023-05-08T02:15:34;100420.63;;;18.03;87.15
60258;BME280;46115;44.484;11.314;2023-05-08T02:19:38;100408.00;;;17.60;89.10
60258;BME280;46115;44.484;11.314;2023-05-08T02:23:44;100433.16;;;18.02;88.79
60258;BME280;46115;44.484;11.314;2023-05-08T02:27:48;100425.38;;;17.99;87.22
60258;BME280;46115;44.484;11.314;2023-05-08T02:31:52;100432.56;;;17.99;87.55
60258;BME280;46115;44.484;11.314;2023-05-08T02:35:57;100431.72;;;17.98;87.17
60258;BME280;46115;44.484;11.314;2023-05-08T02:40:05;100429.63;;;18.02;87.40
60258;BME280;46115;44.484;11.314;2023-05-08T02:44:10;100430.41;;;17.82;88.43
60258;BME280;46115;44.484;11.314;2023-05-08T02:48:19;100431.97;;;18.06;87.28
60258;BME280;46115;44.484;11.314;2023-05-08T02:52:27;100428.66;;;18.14;86.92
60258;BME280;46115;44.484;11.314;2023-05-08T02:56:35;100418.31;;;17.65;88.82
60258;BME280;46115;44.484;11.314;2023-05-08T03:00:51;100426.03;;;17.69;88.82
60258;BME280;46115;44.484;11.314;2023-05-08T03:04:58;100397.84;;;17.76;88.57
60258;BME280;46115;44.484;11.314;2023-05-08T03:09:04;100414.97;;;17.85;88.38
60258;BME280;46115;44.484;11.314;2023-05-08T03:13:11;100415.56;;;17.77;89.03
60258;BME280;46115;44.484;11.314;2023-05-08T03:17:16;100423.91;;;17.62;90.47
60258;BME280;46115;44.484;11.314;2023-05-08T03:21:20;100417.03;;;18.04;88.03
60258;BME280;46115;44.484;11.314;2023-05-08T03:25:24;100427.94;;;18.01;86.99
60258;BME280;46115;44.484;11.314;2023-05-08T03:29:30;100445.69;;;17.91;86.90
60258;BME280;46115;44.484;11.314;2023-05-08T03:33:36;100437.81;;;17.78;89.05
60258;BME280;46115;44.484;11.314;2023-05-08T03:37:40;100443.25;;;18.10;86.51
60258;BME280;46115;44.484;11.314;2023-05-08T03:41:43;100457.56;;;17.64;89.75
60258;BME280;46115;44.484;11.314;2023-05-08T03:45:48;100449.47;;;18.11;86.37
60258;BME280;46115;44.484;11.314;2023-05-08T03:49:52;100444.94;;;17.66;88.67
60258;BME280;46115;44.484;11.314;2023-05-08T03:53:55;100454.69;;;17.67;88.79
60258;BME280;46115;44.484;11.314;2023-05-08T03:58:04;100456.66;;;17.76;88.17
60258;BME280;46115;44.484;11.314;2023-05-08T04:02:16;100461.69;;;17.46;89.05
60258;BME280;46115;44.484;11.314;2023-05-08T04:06:25;100439.28;;;17.13;90.52
60258;BME280;46115;44.484;11.314;2023-05-08T04:10:36;100461.00;;;17.09;90.17
60258;BME280;46115;44.484;11.314;2023-05-08T04:14:42;100453.47;;;16.79;91.47
60258;BME280;46115;44.484;11.314;2023-05-08T04:18:49;100475.22;;;16.86;91.58
60258;BME280;46115;44.484;11.314;2023-05-08T04:22:56;100473.78;;;17.28;87.41
60258;BME280;46115;44.484;11.314;2023-05-08T04:27:00;100483.97;;;17.23;86.98
60258;BME280;46115;44.484;11.314;2023-05-08T04:31:04;100433.50;;;16.96;85.41
60258;BME280;46115;44.484;11.314;2023-05-08T04:35:10;100481.53;;;17.20;86.79
60258;BME280;46115;44.484;11.314;2023-05-08T04:39:13;100496.19;;;17.49;85.83
60258;BME280;46115;44.484;11.314;2023-05-08T04:43:16;100497.78;;;17.52;85.08
60258;BME280;46115;44.484;11.314;2023-05-08T04:47:19;100491.28;;;17.78;84.70
60258;BME280;46115;44.484;11.314;2023-05-08T04:51:23;100492.19;;;17.55;85.67
60258;BME280;46115;44.484;11.314;2023-05-08T04:55:26;100499.69;;;17.38;86.20
60258;BME280;46115;44.484;11.314;2023-05-08T04:59:29;100505.56;;;17.55;84.46
60258;BME280;46115;44.484;11.314;2023-05-08T05:03:31;100495.81;;;17.42;83.75
60258;BME280;46115;44.484;11.314;2023-05-08T05:07:36;100494.31;;;17.27;83.95
60258;BME280;46115;44.484;11.314;2023-05-08T05:11:39;100501.53;;;17.49;83.09
60258;BME280;46115;44.484;11.314;2023-05-08T05:15:42;100496.09;;;17.15;85.28
60258;BME280;46115;44.484;11.314;2023-05-08T05:19:45;100508.22;;;17.66;83.62
60258;BME280;46115;44.484;11.314;2023-05-08T05:23:49;100504.28;;;17.71;83.67
60258;BME280;46115;44.484;11.314;2023-05-08T05:27:51;100524.59;;;17.85;83.54
60258;BME280;46115;44.484;11.314;2023-05-08T05:31:54;100521.59;;;17.66;84.92
60258;BME280;46115;44.484;11.314;2023-05-08T05:35:56;100509.75;;;17.81;82.64
60258;BME280;46115;44.484;11.314;2023-05-08T05:40:00;100533.19;;;18.78;80.29
60258;BME280;46115;44.484;11.314;2023-05-08T05:44:05;100524.72;;;18.17;82.02
60258;BME280;46115;44.484;11.314;2023-05-08T05:48:08;100534.56;;;17.94;83.73
60258;BME280;46115;44.484;11.314;2023-05-08T05:52:11;100555.72;;;18.64;81.27
60258;BME280;46115;44.484;11.314;2023-05-08T05:56:14;100552.28;;;18.85;81.00
60258;BME280;46115;44.484;11.314;2023-05-08T06:00:18;100553.13;;;18.85;81.07
60258;BME280;46115;44.484;11.314;2023-05-08T06:04:24;100555.25;;;18.48;80.83
60258;BME280;46115;44.484;11.314;2023-05-08T06:08:27;100531.06;;;18.16;81.18
60258;BME280;46115;44.484;11.314;2023-05-08T06:12:31;100506.22;;;18.03;81.12
60258;BME280;46115;44.484;11.314;2023-05-08T06:16:35;100547.81;;;18.52;80.30
60258;BME280;46115;44.484;11.314;2023-05-08T06:20:37;100547.91;;;19.16;77.70
60258;BME280;46115;44.484;11.314;2023-05-08T06:24:40;100535.56;;;19.24;76.41
60258;BME280;46115;44.484;11.314;2023-05-08T06:28:44;100553.59;;;19.75;76.49
60258;BME280;46115;44.484;11.314;2023-05-08T06:32:47;100569.00;;;20.34;74.07
60258;BME280;46115;44.484;11.314;2023-05-08T06:36:49;100539.75;;;20.81;70.44
60258;BME280;46115;44.484;11.314;2023-05-08T06:40:51;100552.09;;;21.12;69.65
60258;BME280;46115;44.484;11.314;2023-05-08T06:44:56;100553.34;;;20.79;70.72
60258;BME280;46115;44.484;11.314;2023-05-08T06:48:59;100558.34;;;21.23;68.60
60258;BME280;46115;44.484;11.314;2023-05-08T06:53:01;100559.50;;;21.59;67.42
60258;BME280;46115;44.484;11.314;2023-05-08T06:57:03;100560.63;;;22.77;64.98
60258;BME280;46115;44.484;11.314;2023-05-08T07:01:07;100561.91;;;22.83;62.20
60258;BME280;46115;44.484;11.314;2023-05-08T07:05:10;100570.50;;;23.14;62.76
60258;BME280;46115;44.484;11.314;2023-05-08T07:09:12;100569.56;;;22.60;63.81
60258;BME280;46115;44.484;11.314;2023-05-08T07:13:16;100561.47;;;23.76;60.33
60258;BME280;46115;44.484;11.314;2023-05-08T07:17:23;100571.34;;;23.68;59.29
60258;BME280;46115;44.484;11.314;2023-05-08T07:21:25;100560.00;;;23.46;60.92
60258;BME280;46115;44.484;11.314;2023-05-08T07:25:29;100568.03;;;23.74;58.60
60258;BME280;46115;44.484;11.314;2023-05-08T07:29:32;100563.72;;;23.27;60.08
60258;BME280;46115;44.484;11.314;2023-05-08T07:33:37;100578.88;;;23.46;59.48
60258;BME280;46115;44.484;11.314;2023-05-08T07:37:39;100578.56;;;22.41;62.54
60258;BME280;46115;44.484;11.314;2023-05-08T07:41:41;100570.84;;;23.54;60.77
60258;BME280;46115;44.484;11.314;2023-05-08T07:45:45;100562.56;;;23.48;60.25
60258;BME280;46115;44.484;11.314;2023-05-08T07:49:49;100577.75;;;23.92;59.12
60258;BME280;46115;44.484;11.314;2023-05-08T07:53:51;100575.56;;;24.22;57.14
60258;BME280;46115;44.484;11.314;2023-05-08T07:57:55;100581.91;;;24.05;55.32
60258;BME280;46115;44.484;11.314;2023-05-08T08:01:57;100577.88;;;23.83;56.36
60258;BME280;46115;44.484;11.314;2023-05-08T08:06:01;100570.94;;;24.06;55.72
60258;BME280;46115;44.484;11.314;2023-05-08T08:10:04;100594.09;;;22.84;60.49
60258;BME280;46115;44.484;11.314;2023-05-08T08:14:07;100581.63;;;23.64;58.29
60258;BME280;46115;44.484;11.314;2023-05-08T08:18:09;100595.94;;;24.08;57.73
60258;BME280;46115;44.484;11.314;2023-05-08T08:22:13;100592.84;;;23.24;59.87
60258;BME280;46115;44.484;11.314;2023-05-08T08:26:16;100595.53;;;23.77;57.80
60258;BME280;46115;44.484;11.314;2023-05-08T08:30:18;100603.28;;;22.64;56.56
60258;BME280;46115;44.484;11.314;2023-05-08T08:34:21;100595.59;;;21.46;59.47
60258;BME280;46115;44.484;11.314;2023-05-08T08:38:25;100599.22;;;23.05;56.73
60258;BME280;46115;44.484;11.314;2023-05-08T08:42:27;100597.13;;;23.62;54.50
60258;BME280;46115;44.484;11.314;2023-05-08T08:46:30;100599.22;;;23.94;52.89
60258;BME280;46115;44.484;11.314;2023-05-08T08:50:34;100596.59;;;22.31;57.20
60258;BME280;46115;44.484;11.314;2023-05-08T08:54:39;100588.88;;;22.55;55.90
60258;BME280;46115;44.484;11.314;2023-05-08T08:58:47;100603.09;;;23.02;56.00
60258;BME280;46115;44.484;11.314;2023-05-08T09:02:51;100593.88;;;22.68;57.98
60258;BME280;46115;44.484;11.314;2023-05-08T09:06:54;100602.22;;;23.02;55.89
60258;BME280;46115;44.484;11.314;2023-05-08T09:11:01;100597.91;;;23.09;55.53
60258;BME280;46115;44.484;11.314;2023-05-08T09:15:04;100593.78;;;22.87;57.24
60258;BME280;46115;44.484;11.314;2023-05-08T09:19:07;100608.47;;;23.20;56.27
60258;BME280;46115;44.484;11.314;2023-05-08T09:23:10;100594.75;;;22.31;56.53
60258;BME280;46115;44.484;11.314;2023-05-08T09:27:20;100600.47;;;22.93;55.73
60258;BME280;46115;44.484;11.314;2023-05-08T09:31:33;100587.84;;;23.47;51.33
60258;BME280;46115;44.484;11.314;2023-05-08T09:35:36;100591.56;;;23.63;50.77
60258;BME280;46115;44.484;11.314;2023-05-08T09:39:38;100611.50;;;23.35;51.54
60258;BME280;46115;44.484;11.314;2023-05-08T09:43:59;100595.50;;;22.24;54.76
60258;BME280;46115;44.484;11.314;2023-05-08T09:48:02;100610.25;;;22.94;53.83
60258;BME280;46115;44.484;11.314;2023-05-08T09:52:05;100617.81;;;23.79;52.51
60258;BME280;46115;44.484;11.314;2023-05-08T09:56:08;100622.19;;;22.91;53.69
60258;BME280;46115;44.484;11.314;2023-05-08T10:00:13;100625.75;;;22.45;54.43
60258;BME280;46115;44.484;11.314;2023-05-08T10:04:15;100613.56;;;22.41;56.40
60258;BME280;46115;44.484;11.314;2023-05-08T10:08:19;100627.56;;;22.91;54.08
60258;BME280;46115;44.484;11.314;2023-05-08T10:12:22;100628.44;;;23.10;54.00
60258;BME280;46115;44.484;11.314;2023-05-08T10:16:28;100627.13;;;22.59;54.92
60258;BME280;46115;44.484;11.314;2023-05-08T10:20:32;100621.81;;;23.22;54.76
60258;BME280;46115;44.484;11.314;2023-05-08T10:24:40;100629.31;;;23.46;52.00
60258;BME280;46115;44.484;11.314;2023-05-08T10:28:49;100629.25;;;23.73;52.61
60258;BME280;46115;44.484;11.314;2023-05-08T10:32:59;100614.47;;;23.14;53.02
60258;BME280;46115;44.484;11.314;2023-05-08T10:37:05;100607.03;;;23.26;53.78
60258;BME280;46115;44.484;11.314;2023-05-08T10:41:10;100611.09;;;23.12;53.01
60258;BME280;46115;44.484;11.314;2023-05-08T10:45:13;100599.47;;;22.57;53.38
60258;BME280;46115;44.484;11.314;2023-05-08T10:49:23;100589.44;;;22.02;56.55
60258;BME280;46115;44.484;11.314;2023-05-08T10:53:33;100581.31;;;22.86;55.17
60258;BME280;46115;44.484;11.314;2023-05-08T10:57:37;100590.31;;;22.40;54.95
60258;BME280;46115;44.484;11.314;2023-05-08T11:01:40;100580.31;;;22.32;55.97
60258;BME280;46115;44.484;11.314;2023-05-08T11:05:46;100577.97;;;23.55;53.05
60258;BME280;46115;44.484;11.314;2023-05-08T11:09:49;100567.50;;;22.71;55.06
60258;BME280;46115;44.484;11.314;2023-05-08T11:13:53;100571.66;;;23.11;50.60
60258;BME280;46115;44.484;11.314;2023-05-08T11:17:56;100568.28;;;23.27;51.71
60258;BME280;46115;44.484;11.314;2023-05-08T11:22:22;100548.34;;;22.10;54.36
60258;BME280;46115;44.484;11.314;2023-05-08T11:26:37;100561.75;;;22.20;55.37
60258;BME280;46115;44.484;11.314;2023-05-08T11:30:40;100570.44;;;22.14;55.67
60258;BME280;46115;44.484;11.314;2023-05-08T11:34:46;100561.78;;;23.02;54.15
60258;BME280;46115;44.484;11.314;2023-05-08T11:39:07;100555.75;;;22.35;54.27
60258;BME280;46115;44.484;11.314;2023-05-08T11:47:44;100551.59;;;22.14;55.48
60258;BME280;46115;44.484;11.314;2023-05-08T11:51:47;100545.34;;;22.23;55.03
60258;BME280;46115;44.484;11.314;2023-05-08T11:55:53;100548.25;;;21.92;56.53
60258;BME280;46115;44.484;11.314;2023-05-08T11:59:55;100546.81;;;22.07;57.23
60258;BME280;46115;44.484;11.314;2023-05-08T12:04:03;100540.28;;;22.00;57.84
60258;BME280;46115;44.484;11.314;2023-05-08T12:08:06;100531.66;;;21.97;56.65
60258;BME280;46115;44.484;11.314;2023-05-08T12:12:10;100549.00;;;22.59;54.71
60258;BME280;46115;44.484;11.314;2023-05-08T12:16:13;100546.25;;;22.96;54.10
60258;BME280;46115;44.484;11.314;2023-05-08T12:20:16;100548.00;;;22.60;54.08
60258;BME280;46115;44.484;11.314;2023-05-08T12:24:19;100550.47;;;22.98;52.89
60258;BME280;46115;44.484;11.314;2023-05-08T12:28:24;100543.59;;;22.31;55.47
60258;BME280;46115;44.484;11.314;2023-05-08T12:32:27;100536.56;;;22.21;55.51
60258;BME280;46115;44.484;11.314;2023-05-08T12:36:32;100544.06;;;22.27;55.94
60258;BME280;46115;44.484;11.314;2023-05-08T12:40:41;100509.13;;;21.98;57.12
60258;BME280;46115;44.484;11.314;2023-05-08T12:44:50;100550.91;;;22.02;57.54
60258;BME280;46115;44.484;11.314;2023-05-08T12:48:59;100535.50;;;21.85;57.97
60258;BME280;46115;44.484;11.314;2023-05-08T12:53:03;100534.97;;;22.28;57.96
60258;BME280;46115;44.484;11.314;2023-05-08T12:57:08;100532.56;;;22.52;56.64
60258;BME280;46115;44.484;11.314;2023-05-08T13:01:12;100549.44;;;22.17;57.95
60258;BME280;46115;44.484;11.314;2023-05-08T13:05:18;100553.56;;;22.21;56.59
60258;BME280;46115;44.484;11.314;2023-05-08T13:09:20;100538.03;;;22.05;56.85
60258;BME280;46115;44.484;11.314;2023-05-08T13:13:25;100532.50;;;22.07;58.27
60258;BME280;46115;44.484;11.314;2023-05-08T13:17:28;100525.38;;;22.16;58.12
60258;BME280;46115;44.484;11.314;2023-05-08T13:21:31;100521.53;;;21.71;58.88
60258;BME280;46115;44.484;11.314;2023-05-08T13:25:34;100540.94;;;21.65;59.76
60258;BME280;46115;44.484;11.314;2023-05-08T13:29:37;100538.50;;;20.75;62.31
60258;BME280;46115;44.484;11.314;2023-05-08T13:33:41;100508.25;;;21.12;62.15
60258;BME280;46115;44.484;11.314;2023-05-08T13:37:43;100524.19;;;21.81;62.48
60258;BME280;46115;44.484;11.314;2023-05-08T13:41:46;100528.91;;;21.60;60.79
60258;BME280;46115;44.484;11.314;2023-05-08T13:45:48;100525.84;;;21.26;61.84
60258;BME280;46115;44.484;11.314;2023-05-08T13:49:52;100516.31;;;21.60;61.84
60258;BME280;46115;44.484;11.314;2023-05-08T13:53:54;100512.66;;;21.23;61.20
60258;BME280;46115;44.484;11.314;2023-05-08T13:57:56;100509.25;;;21.40;59.18
60258;BME280;46115;44.484;11.314;2023-05-08T14:01:59;100491.00;;;21.53;59.83
60258;BME280;46115;44.484;11.314;2023-05-08T14:06:03;100516.06;;;21.54;59.56
60258;BME280;46115;44.484;11.314;2023-05-08T14:10:06;100505.66;;;21.68;58.95
60258;BME280;46115;44.484;11.314;2023-05-08T14:14:09;100503.69;;;21.70;59.15
60258;BME280;46115;44.484;11.314;2023-05-08T14:18:11;100509.44;;;22.32;56.65
60258;BME280;46115;44.484;11.314;2023-05-08T14:22:15;100501.59;;;21.45;57.08
60258;BME280;46115;44.484;11.314;2023-05-08T14:26:18;100501.03;;;22.07;54.80
60258;BME280;46115;44.484;11.314;2023-05-08T14:30:21;100511.56;;;21.82;53.24
60258;BME280;46115;44.484;11.314;2023-05-08T14:34:23;100503.94;;;21.87;54.00
60258;BME280;46115;44.484;11.314;2023-05-08T14:38:27;100498.78;;;21.46;53.35
60258;BME280;46115;44.484;11.314;2023-05-08T14:42:29;100502.09;;;21.87;53.19
60258;BME280;46115;44.484;11.314;2023-05-08T14:46:33;100464.28;;;21.89;51.85
60258;BME280;46115;44.484;11.314;2023-05-08T14:50:35;100479.28;;;21.91;51.95
60258;BME280;46115;44.484;11.314;2023-05-08T14:54:39;100492.53;;;22.39;50.71
60258;BME280;46115;44.484;11.314;2023-05-08T14:58:42;100494.53;;;22.00;51.25
60258;BME280;46115;44.484;11.314;2023-05-08T15:02:44;100503.38;;;21.73;54.86
60258;BME280;46115;44.484;11.314;2023-05-08T15:06:46;100482.09;;;21.53;54.99
60258;BME280;46115;44.484;11.314;2023-05-08T15:10:50;100498.41;;;21.78;52.47
60258;BME280;46115;44.484;11.314;2023-05-08T15:14:53;100497.81;;;21.94;53.34
60258;BME280;46115;44.484;11.314;2023-05-08T15:18:55;100507.13;;;21.53;53.93
60258;BME280;46115;44.484;11.314;2023-05-08T15:22:57;100501.91;;;22.35;52.81
60258;BME280;46115;44.484;11.314;2023-05-08T15:27:01;100501.66;;;22.56;52.24
60258;BME280;46115;44.484;11.314;2023-05-08T15:31:04;100504.06;;;22.32;53.17
60258;BME280;46115;44.484;11.314;2023-05-08T15:35:07;100497.34;;;22.08;54.56
60258;BME280;46115;44.484;11.314;2023-05-08T15:39:09;100495.00;;;22.51;53.98
60258;BME280;46115;44.484;11.314;2023-05-08T15:43:13;100498.13;;;21.82;55.63
60258;BME280;46115;44.484;11.314;2023-05-08T15:47:16;100491.75;;;21.83;55.94
60258;BME280;46115;44.484;11.314;2023-05-08T15:51:19;100492.28;;;20.91;59.37
60258;BME280;46115;44.484;11.314;2023-05-08T15:55:21;100491.63;;;21.74;57.76
60258;BME280;46115;44.484;11.314;2023-05-08T15:59:25;100498.38;;;21.32;57.44
60258;BME280;46115;44.484;11.314;2023-05-08T16:03:28;100492.84;;;21.04;58.39
60258;BME280;46115;44.484;11.314;2023-05-08T16:07:30;100495.09;;;21.57;57.86
60258;BME280;46115;44.484;11.314;2023-05-08T16:11:32;100488.56;;;21.50;58.24
60258;BME280;46115;44.484;11.314;2023-05-08T16:15:36;100487.91;;;21.19;60.26
60258;BME280;46115;44.484;11.314;2023-05-08T16:19:39;100496.75;;;21.68;58.79
60258;BME280;46115;44.484;11.314;2023-05-08T16:23:41;100496.91;;;21.66;58.24
60258;BME280;46115;44.484;11.314;2023-05-08T16:27:43;100488.50;;;21.89;57.58
60258;BME280;46115;44.484;11.314;2023-05-08T16:31:47;100478.56;;;21.89;56.54
60258;BME280;46115;44.484;11.314;2023-05-08T16:35:50;100494.28;;;21.84;57.13
60258;BME280;46115;44.484;11.314;2023-05-08T16:39:52;100496.75;;;21.68;57.23
60258;BME280;46115;44.484;11.314;2023-05-08T16:43:54;100423.06;;;21.41;57.20
60258;BME280;46115;44.484;11.314;2023-05-08T16:47:58;100486.72;;;21.51;58.11
60258;BME280;46115;44.484;11.314;2023-05-08T16:52:00;100495.97;;;21.38;58.19
60258;BME280;46115;44.484;11.314;2023-05-08T16:56:03;100514.47;;;21.61;57.39
60258;BME280;46115;44.484;11.314;2023-05-08T17:00:07;100506.41;;;21.61;54.83
60258;BME280;46115;44.484;11.314;2023-05-08T17:04:10;100494.41;;;20.97;55.55
60258;BME280;46115;44.484;11.314;2023-05-08T17:08:13;100508.16;;;21.23;56.33
60258;BME280;46115;44.484;11.314;2023-05-08T17:12:15;100503.47;;;21.35;56.19
60258;BME280;46115;44.484;11.314;2023-05-08T17:16:18;100515.31;;;21.61;56.24
60258;BME280;46115;44.484;11.314;2023-05-08T17:20:21;100524.28;;;21.52;56.38
60258;BME280;46115;44.484;11.314;2023-05-08T17:24:24;100527.50;;;20.98;57.69
60258;BME280;46115;44.484;11.314;2023-05-08T17:28:26;100527.22;;;21.01;58.30
60258;BME280;46115;44.484;11.314;2023-05-08T17:32:28;100527.63;;;20.86;58.83
60258;BME280;46115;44.484;11.314;2023-05-08T17:36:32;100539.81;;;21.10;58.39
60258;BME280;46115;44.484;11.314;2023-05-08T17:40:35;100539.22;;;21.06;58.89
60258;BME280;46115;44.484;11.314;2023-05-08T17:44:39;100551.41;;;20.81;59.71
60258;BME280;46115;44.484;11.314;2023-05-08T17:48:41;100557.72;;;20.80;60.20
60258;BME280;46115;44.484;11.314;2023-05-08T17:52:45;100561.00;;;20.94;60.31
60258;BME280;46115;44.484;11.314;2023-05-08T17:56:47;100558.00;;;20.77;61.24
60258;BME280;46115;44.484;11.314;2023-05-08T18:00:50;100568.09;;;21.04;61.10
60258;BME280;46115;44.484;11.314;2023-05-08T18:04:53;100566.16;;;20.57;59.81
60258;BME280;46115;44.484;11.314;2023-05-08T18:08:57;100565.81;;;20.40;63.46
60258;BME280;46115;44.484;11.314;2023-05-08T18:12:59;100560.41;;;20.10;62.54
60258;BME280;46115;44.484;11.314;2023-05-08T18:17:02;100570.22;;;19.69;64.02
60258;BME280;46115;44.484;11.314;2023-05-08T18:21:04;100578.84;;;19.93;64.21
60258;BME280;46115;44.484;11.314;2023-05-08T18:25:08;100564.78;;;19.80;65.95
60258;BME280;46115;44.484;11.314;2023-05-08T18:29:11;100570.34;;;19.88;65.05
60258;BME280;46115;44.484;11.314;2023-05-08T18:33:13;100585.63;;;19.77;64.75
60258;BME280;46115;44.484;11.314;2023-05-08T18:37:16;100598.69;;;19.49;65.98
60258;BME280;46115;44.484;11.314;2023-05-08T18:41:19;100598.94;;;19.57;64.67
60258;BME280;46115;44.484;11.314;2023-05-08T18:45:22;100607.69;;;20.01;65.19
60258;BME280;46115;44.484;11.314;2023-05-08T18:49:24;100600.16;;;19.53;66.11
60258;BME280;46115;44.484;11.314;2023-05-08T18:53:27;100600.69;;;19.36;66.94
60258;BME280;46115;44.484;11.314;2023-05-08T18:57:31;100614.47;;;19.31;64.83
60258;BME280;46115;44.484;11.314;2023-05-08T19:01:34;100611.50;;;19.57;63.89
60258;BME280;46115;44.484;11.314;2023-05-08T19:05:36;100613.34;;;19.45;62.17
60258;BME280;46115;44.484;11.314;2023-05-08T19:09:38;100623.41;;;19.21;66.52
60258;BME280;46115;44.484;11.314;2023-05-08T19:13:42;100627.00;;;18.99;66.74
60258;BME280;46115;44.484;11.314;2023-05-08T22:06:08;100649.97;;;18.12;78.26
60258;BME280;46115;44.484;11.314;2023-05-08T22:10:10;100654.97;;;18.05;79.54
60258;BME280;46115;44.484;11.314;2023-05-08T22:14:13;100646.34;;;18.35;78.65
60258;BME280;46115;44.484;11.314;2023-05-08T22:18:16;100647.56;;;18.20;79.94
60258;BME280;46115;44.484;11.314;2023-05-08T22:22:19;100638.72;;;18.64;77.33
60258;BME280;46115;44.484;11.314;2023-05-08T22:26:22;100655.88;;;18.84;75.10
60258;BME280;46115;44.484;11.314;2023-05-08T22:30:25;100653.16;;;18.28;79.08
60258;BME280;46115;44.484;11.314;2023-05-08T22:34:27;100663.13;;;18.15;79.76
60258;BME280;46115;44.484;11.314;2023-05-08T22:38:31;100662.13;;;18.05;79.68
60258;BME280;46115;44.484;11.314;2023-05-08T22:42:33;100664.13;;;17.66;80.00
60258;BME280;46115;44.484;11.314;2023-05-08T22:46:36;100626.53;;;17.69;78.48
60258;BME280;46115;44.484;11.314;2023-05-08T22:50:39;100651.63;;;17.91;76.75
60258;BME280;46115;44.484;11.314;2023-05-08T22:54:43;100654.03;;;17.83;77.86
60258;BME280;46115;44.484;11.314;2023-05-08T22:58:45;100648.22;;;17.89;77.01
60258;BME280;46115;44.484;11.314;2023-05-08T23:02:47;100645.75;;;17.51;78.39
60258;BME280;46115;44.484;11.314;2023-05-08T23:06:50;100646.50;;;17.76;77.50
60258;BME280;46115;44.484;11.314;2023-05-08T23:10:53;100631.78;;;17.71;77.27
60258;BME280;46115;44.484;11.314;2023-05-08T23:14:56;100603.97;;;17.26;78.64
60258;BME280;46115;44.484;11.314;2023-05-08T23:18:58;100621.31;;;17.44;78.81
60258;BME280;46115;44.484;11.314;2023-05-08T23:23:00;100640.34;;;17.39;78.85
60258;BME280;46115;44.484;11.314;2023-05-08T23:27:04;100641.31;;;17.14;79.82
60258;BME280;46115;44.484;11.314;2023-05-08T23:31:07;100633.47;;;16.88;80.87
60258;BME280;46115;44.484;11.314;2023-05-08T23:35:10;100637.28;;;16.96;81.01
60258;BME280;46115;44.484;11.314;2023-05-08T23:39:12;100627.25;;;17.24;79.37
60258;BME280;46115;44.484;11.314;2023-05-08T23:43:16;100625.22;;;17.27;79.64
60258;BME280;46115;44.484;11.314;2023-05-08T23:47:18;100621.81;;;17.01;80.66
60258;BME280;46115;44.484;11.314;2023-05-08T23:51:22;100611.25;;;17.24;79.94
60258;BME280;46115;44.484;11.314;2023-05-08T23:55:24;100613.06;;;17.23;80.27
60258;BME280;46115;44.484;11.314;2023-05-08T23:59:28;100600.13;;;16.93;81.78
